BOX545 EBBR-EDDF
Flight info
| Callsign | BOX545 |
|---|---|
| Flight time | N/A |
| Altitude | 23000 |
| Route | SPI T180 NIVNU T847 IMCOM IMCOM1A |
| Aircraft | B77L/H-SDE1E2E3FGHIJ2J3J4J5M1RWXYZ/LB1D1 |
Departure
| Time | 2026-05-07 07:46 |
|---|---|
| Airport | Brussels Airport (EBBR) |
Arrival
| Time | N/A |
|---|---|
| Airport | Frankfurt Main Airport (EDDF) |
| Time | Latitude | Longitude | Altitude | Speed | Heading |
|---|---|---|---|---|---|
| 2026-05-07 07:24 | 50.90463 | 4.46358 | 148 ft | 0 kts | 338° |
| 2026-05-07 07:37 | 50.90450 | 4.46366 | 148 ft | 4 kts | 337° |
| 2026-05-07 07:37 | 50.90425 | 4.46382 | 148 ft | 4 kts | 339° |
| 2026-05-07 07:38 | 50.90400 | 4.46397 | 148 ft | 4 kts | 340° |
| 2026-05-07 07:38 | 50.90375 | 4.46411 | 148 ft | 4 kts | 341° |
| 2026-05-07 07:38 | 50.90370 | 4.46414 | 148 ft | 0 kts | 341° |
| 2026-05-07 07:40 | 50.90380 | 4.46413 | 148 ft | 4 kts | 6° |
| 2026-05-07 07:40 | 50.90379 | 4.46478 | 148 ft | 11 kts | 117° |
| 2026-05-07 07:41 | 50.90318 | 4.46658 | 145 ft | 24 kts | 118° |
| 2026-05-07 07:41 | 50.90237 | 4.46906 | 141 ft | 26 kts | 116° |
| 2026-05-07 07:41 | 50.90179 | 4.47160 | 147 ft | 24 kts | 81° |
| 2026-05-07 07:41 | 50.90243 | 4.47403 | 147 ft | 24 kts | 65° |
| 2026-05-07 07:42 | 50.90314 | 4.47650 | 146 ft | 24 kts | 65° |
| 2026-05-07 07:42 | 50.90384 | 4.47894 | 147 ft | 24 kts | 66° |
| 2026-05-07 07:42 | 50.90455 | 4.48137 | 147 ft | 24 kts | 65° |
| 2026-05-07 07:42 | 50.90526 | 4.48379 | 146 ft | 24 kts | 65° |
| 2026-05-07 07:43 | 50.90597 | 4.48623 | 146 ft | 24 kts | 65° |
| 2026-05-07 07:43 | 50.90666 | 4.48867 | 146 ft | 24 kts | 66° |
| 2026-05-07 07:43 | 50.90735 | 4.49110 | 146 ft | 24 kts | 66° |
| 2026-05-07 07:43 | 50.90806 | 4.49354 | 146 ft | 24 kts | 65° |
| 2026-05-07 07:44 | 50.90875 | 4.49597 | 146 ft | 24 kts | 66° |
| 2026-05-07 07:44 | 50.90957 | 4.49829 | 143 ft | 24 kts | 44° |
| 2026-05-07 07:44 | 50.91085 | 4.49940 | 125 ft | 16 kts | 12° |
| 2026-05-07 07:44 | 50.91132 | 4.49857 | 126 ft | 11 kts | 251° |
| 2026-05-07 07:45 | 50.91105 | 4.49766 | 124 ft | 20 kts | 245° |
| 2026-05-07 07:45 | 50.90962 | 4.49264 | 128 ft | 88 kts | 245° |
| 2026-05-07 07:45 | 50.90609 | 4.48042 | 138 ft | 153 kts | 245° |
| 2026-05-07 07:45 | 50.90125 | 4.46334 | 432 ft | 175 kts | 247° |
| 2026-05-07 07:46 | 50.89633 | 4.44608 | 1237 ft | 172 kts | 246° |
| 2026-05-07 07:46 | 50.89119 | 4.42865 | 1808 ft | 180 kts | 246° |
| 2026-05-07 07:46 | 50.88560 | 4.40966 | 2215 ft | 203 kts | 246° |
| 2026-05-07 07:46 | 50.87928 | 4.38799 | 2479 ft | 231 kts | 246° |
| 2026-05-07 07:47 | 50.87216 | 4.36338 | 2835 ft | 257 kts | 246° |
| 2026-05-07 07:47 | 50.86460 | 4.33722 | 3655 ft | 264 kts | 246° |
| 2026-05-07 07:47 | 50.85668 | 4.31086 | 4540 ft | 266 kts | 239° |
| 2026-05-07 07:47 | 50.84367 | 4.28987 | 5363 ft | 271 kts | 210° |
| 2026-05-07 07:48 | 50.82610 | 4.28028 | 6405 ft | 267 kts | 186° |
| 2026-05-07 07:48 | 50.80754 | 4.28166 | 7250 ft | 271 kts | 166° |
| 2026-05-07 07:48 | 50.79009 | 4.29358 | 7981 ft | 278 kts | 145° |
| 2026-05-07 07:48 | 50.77664 | 4.31571 | 8780 ft | 283 kts | 121° |
| 2026-05-07 07:49 | 50.77115 | 4.33443 | 9341 ft | 285 kts | 109° |
| 2026-05-07 07:49 | 50.76328 | 4.37499 | 10312 ft | 293 kts | 106° |
| 2026-05-07 07:49 | 50.75948 | 4.39592 | 10602 ft | 306 kts | 106° |
| 2026-05-07 07:49 | 50.75335 | 4.42975 | 10775 ft | 334 kts | 106° |
| 2026-05-07 07:50 | 50.74663 | 4.46645 | 10970 ft | 362 kts | 106° |
| 2026-05-07 07:50 | 50.73937 | 4.50542 | 11564 ft | 375 kts | 107° |
| 2026-05-07 07:50 | 50.72939 | 4.55810 | 12841 ft | 382 kts | 107° |
| 2026-05-07 07:50 | 50.72419 | 4.58541 | 13475 ft | 387 kts | 107° |
| 2026-05-07 07:51 | 50.71629 | 4.62639 | 14323 ft | 394 kts | 107° |
| 2026-05-07 07:51 | 50.70812 | 4.66799 | 15169 ft | 400 kts | 108° |
| 2026-05-07 07:51 | 50.69977 | 4.71010 | 16048 ft | 404 kts | 108° |
| 2026-05-07 07:51 | 50.69131 | 4.75266 | 16927 ft | 409 kts | 108° |
| 2026-05-07 07:52 | 50.68276 | 4.79567 | 17785 ft | 414 kts | 108° |
| 2026-05-07 07:52 | 50.67409 | 4.83926 | 18585 ft | 419 kts | 108° |
| 2026-05-07 07:52 | 50.66531 | 4.88331 | 19319 ft | 424 kts | 108° |
| 2026-05-07 07:52 | 50.65643 | 4.92781 | 20037 ft | 428 kts | 108° |
| 2026-05-07 07:53 | 50.64745 | 4.97277 | 20804 ft | 431 kts | 108° |
| 2026-05-07 07:53 | 50.63844 | 5.01773 | 21745 ft | 429 kts | 108° |
| 2026-05-07 07:53 | 50.62947 | 5.06244 | 22703 ft | 428 kts | 108° |
| 2026-05-07 07:53 | 50.62057 | 5.10668 | 23078 ft | 430 kts | 108° |
| 2026-05-07 07:54 | 50.61153 | 5.15149 | 23047 ft | 428 kts | 108° |
| 2026-05-07 07:54 | 50.60252 | 5.19608 | 23052 ft | 427 kts | 108° |
| 2026-05-07 07:54 | 50.59349 | 5.24064 | 23048 ft | 427 kts | 108° |
| 2026-05-07 07:54 | 50.58443 | 5.28523 | 23046 ft | 428 kts | 108° |
| 2026-05-07 07:55 | 50.57538 | 5.32971 | 23051 ft | 427 kts | 108° |
| 2026-05-07 07:55 | 50.56807 | 5.36556 | 23056 ft | 427 kts | 108° |
| 2026-05-07 07:55 | 50.55920 | 5.40894 | 23057 ft | 427 kts | 108° |
| 2026-05-07 07:55 | 50.55011 | 5.45338 | 23052 ft | 428 kts | 108° |
| 2026-05-07 07:56 | 50.54097 | 5.49792 | 23050 ft | 427 kts | 108° |
| 2026-05-07 07:56 | 50.53184 | 5.54238 | 23048 ft | 427 kts | 108° |
| 2026-05-07 07:56 | 50.52269 | 5.58675 | 23051 ft | 427 kts | 108° |
| 2026-05-07 07:56 | 50.51354 | 5.63115 | 23048 ft | 427 kts | 108° |
| 2026-05-07 07:57 | 50.50485 | 5.67580 | 23042 ft | 427 kts | 107° |
| 2026-05-07 07:57 | 50.49653 | 5.72054 | 23040 ft | 427 kts | 106° |
| 2026-05-07 07:57 | 50.48831 | 5.76536 | 23040 ft | 427 kts | 106° |
| 2026-05-07 07:57 | 50.48009 | 5.81008 | 23029 ft | 427 kts | 106° |
| 2026-05-07 07:58 | 50.47179 | 5.85478 | 23023 ft | 426 kts | 106° |
| 2026-05-07 07:58 | 50.46345 | 5.89943 | 23023 ft | 426 kts | 106° |
| 2026-05-07 07:58 | 50.45506 | 5.94403 | 23011 ft | 426 kts | 107° |
| 2026-05-07 07:58 | 50.44664 | 5.98860 | 23009 ft | 426 kts | 107° |
| 2026-05-07 07:59 | 50.43822 | 6.03303 | 23009 ft | 426 kts | 107° |
| 2026-05-07 07:59 | 50.42975 | 6.07759 | 23005 ft | 426 kts | 107° |
| 2026-05-07 07:59 | 50.42128 | 6.12209 | 23003 ft | 426 kts | 107° |
| 2026-05-07 07:59 | 50.41279 | 6.16659 | 22999 ft | 426 kts | 106° |
| 2026-05-07 08:00 | 50.40429 | 6.21105 | 22999 ft | 426 kts | 107° |
| 2026-05-07 08:00 | 50.39576 | 6.25560 | 22997 ft | 426 kts | 107° |
| 2026-05-07 08:00 | 50.38723 | 6.30007 | 22992 ft | 426 kts | 107° |
| 2026-05-07 08:00 | 50.37866 | 6.34455 | 22988 ft | 426 kts | 107° |
| 2026-05-07 08:01 | 50.37000 | 6.38894 | 22984 ft | 426 kts | 106° |
| 2026-05-07 08:01 | 50.36295 | 6.43388 | 22981 ft | 426 kts | 100° |
| 2026-05-07 08:01 | 50.35911 | 6.47982 | 22986 ft | 426 kts | 95° |
| 2026-05-07 08:01 | 50.35647 | 6.52600 | 22988 ft | 426 kts | 94° |
| 2026-05-07 08:02 | 50.35384 | 6.57226 | 22984 ft | 426 kts | 94° |
| 2026-05-07 08:02 | 50.35109 | 6.61841 | 22989 ft | 427 kts | 95° |
| 2026-05-07 08:02 | 50.34822 | 6.66474 | 22989 ft | 427 kts | 95° |
| 2026-05-07 08:02 | 50.34527 | 6.71100 | 22992 ft | 427 kts | 95° |
| 2026-05-07 08:03 | 50.34231 | 6.75695 | 22980 ft | 422 kts | 95° |
| 2026-05-07 08:03 | 50.33953 | 6.80243 | 22973 ft | 416 kts | 95° |
| 2026-05-07 08:03 | 50.33775 | 6.83208 | 22979 ft | 413 kts | 95° |
| 2026-05-07 08:03 | 50.33737 | 6.83833 | 22973 ft | 411 kts | 95° |